createdAt,value
2017-07-17T11:32:45.407Z,205
2017-07-17T11:32:58.385Z,205
2017-07-17T11:33:11.284Z,205
2017-07-17T11:33:24.747Z,205
2017-07-17T11:33:37.649Z,205
2017-07-17T11:33:50.569Z,205
2017-07-17T11:34:04.026Z,205
2017-07-17T11:34:17.476Z,205
2017-07-17T11:34:30.421Z,205
2017-07-17T11:34:43.389Z,205
2017-07-17T11:34:56.877Z,205
2017-07-17T11:35:10.286Z,205
2017-07-17T11:35:23.253Z,205
2017-07-17T11:35:35.124Z,205
2017-07-17T11:35:47.510Z,205
2017-07-17T11:36:01.020Z,205
2017-07-17T11:36:13.388Z,205
2017-07-17T11:36:26.906Z,210
2017-07-17T11:36:39.813Z,210
2017-07-17T11:36:53.326Z,215
2017-07-17T11:37:06.256Z,210
2017-07-17T11:37:19.161Z,210
2017-07-17T11:37:31.572Z,210
2017-07-17T11:37:44.459Z,210
2017-07-17T11:37:57.810Z,210
2017-07-17T11:38:11.279Z,210
2017-07-17T11:38:23.641Z,210
2017-07-17T11:38:36.594Z,210
2017-07-17T11:38:49.492Z,210
2017-07-17T11:39:02.395Z,210
2017-07-17T11:39:15.820Z,210
2017-07-17T11:39:29.289Z,210
2017-07-17T11:39:42.262Z,210
2017-07-17T11:39:54.106Z,210
2017-07-17T11:40:07.031Z,210
2017-07-17T11:40:20.515Z,210
2017-07-17T11:40:33.987Z,210
2017-07-17T11:40:47.442Z,210
2017-07-17T11:40:59.857Z,210
2017-07-17T11:41:12.780Z,210
2017-07-17T11:41:25.188Z,210
2017-07-17T11:41:38.135Z,210
2017-07-17T11:41:50.502Z,210
2017-07-17T11:42:02.905Z,215
2017-07-17T11:42:15.960Z,215
2017-07-17T11:42:28.363Z,215
2017-07-17T11:42:40.774Z,215
2017-07-17T11:42:53.681Z,215
2017-07-17T11:43:07.125Z,215
2017-07-17T11:43:20.525Z,215
2017-07-17T11:43:33.483Z,215
2017-07-17T11:43:45.952Z,215
2017-07-17T11:43:58.899Z,215
2017-07-17T11:44:11.272Z,215
2017-07-17T11:44:23.652Z,215
2017-07-17T11:44:36.587Z,215
2017-07-17T11:44:50.040Z,215
2017-07-17T11:45:03.483Z,215
2017-07-17T11:45:16.968Z,215
2017-07-17T11:45:28.813Z,215
2017-07-17T11:45:41.162Z,215
2017-07-17T11:45:54.104Z,215
2017-07-17T11:56:17.934Z,225
2017-07-17T11:56:31.315Z,225
2017-07-17T11:56:44.777Z,225
2017-07-17T11:56:58.206Z,225
2017-07-17T11:57:11.652Z,230
2017-07-17T11:58:23.482Z,225
2017-07-17T11:58:36.882Z,225
2017-07-17T11:58:49.830Z,225
2017-07-17T11:59:03.311Z,225
2017-07-17T11:59:16.781Z,225
2017-07-17T11:59:30.163Z,230
2017-07-17T11:59:43.580Z,230
2017-07-17T11:59:56.506Z,225
2017-07-17T12:00:09.386Z,225
2017-07-17T12:00:22.865Z,225
2017-07-17T12:00:36.314Z,230
2017-07-17T12:00:49.790Z,230
2017-07-17T12:01:03.224Z,230
2017-07-17T12:01:16.611Z,225
2017-07-17T12:01:30.030Z,230
2017-07-17T12:01:42.979Z,230
2017-07-17T12:01:56.403Z,230
2017-07-17T12:02:09.825Z,230
2017-07-17T12:02:23.234Z,230
2017-07-17T12:02:36.658Z,230
2017-07-17T12:02:50.096Z,230
2017-07-17T12:03:03.557Z,230
2017-07-17T12:03:16.980Z,230
2017-07-17T12:03:30.398Z,230
2017-07-17T12:03:43.849Z,230
2017-07-17T12:03:57.306Z,230
2017-07-17T12:04:10.733Z,230
2017-07-17T12:04:24.217Z,230
2017-07-17T12:04:37.681Z,230
2017-07-17T12:04:50.550Z,230
2017-07-17T12:05:49.743Z,230
2017-07-17T12:06:02.664Z,230
2017-07-17T12:06:15.079Z,230
2017-07-17T12:06:28.542Z,235
2017-07-17T12:06:42.006Z,230
2017-07-17T12:06:54.397Z,230
2017-07-17T12:07:07.850Z,230
2017-07-17T12:07:20.755Z,230
2017-07-17T12:07:33.655Z,230
2017-07-17T12:07:46.556Z,235
2017-07-17T12:07:58.945Z,235
2017-07-17T12:08:12.435Z,235
2017-07-17T12:08:25.619Z,235
2017-07-17T12:08:38.545Z,235
2017-07-17T12:08:51.977Z,235
2017-07-17T12:09:04.900Z,235
2017-07-17T12:09:18.348Z,235
2017-07-17T12:09:31.225Z,235
2017-07-17T12:09:44.118Z,235
2017-07-17T12:09:57.630Z,235
2017-07-17T12:10:11.072Z,235
2017-07-17T12:10:24.532Z,235
2017-07-17T12:10:38.010Z,235
2017-07-17T12:10:50.907Z,235
2017-07-17T12:11:04.305Z,235
2017-07-17T12:11:17.200Z,235
2017-07-17T12:11:30.340Z,235
2017-07-17T12:11:43.859Z,235
2017-07-17T12:11:57.277Z,235
2017-07-17T12:12:09.650Z,235
2017-07-17T12:12:22.015Z,235
2017-07-17T12:12:34.410Z,235
2017-07-17T12:12:47.340Z,235
2017-07-17T12:13:00.812Z,235
2017-07-17T12:13:14.214Z,235
2017-07-17T12:13:27.124Z,235
2017-07-17T12:13:39.548Z,235
2017-07-17T12:13:52.980Z,235
2017-07-17T12:14:05.935Z,235
2017-07-17T12:14:18.252Z,235
2017-07-17T12:14:30.608Z,235
2017-07-17T12:14:44.082Z,235
2017-07-17T12:14:57.041Z,235
2017-07-17T12:15:09.960Z,240
2017-07-17T12:15:23.419Z,240
2017-07-17T12:15:36.895Z,240
2017-07-17T12:15:49.296Z,240
2017-07-17T12:16:01.716Z,240
2017-07-17T12:16:14.616Z,240
2017-07-17T12:16:28.027Z,240
2017-07-17T12:16:40.943Z,240
2017-07-17T12:16:53.902Z,240
2017-07-17T12:17:07.331Z,240
2017-07-17T12:17:20.811Z,240
2017-07-17T12:17:33.161Z,240
2017-07-17T12:17:46.092Z,240
2017-07-17T12:17:58.994Z,240
2017-07-17T12:18:12.477Z,240
2017-07-17T12:18:26.138Z,240
2017-07-17T12:18:39.568Z,240
2017-07-17T12:18:52.431Z,240
2017-07-17T12:19:04.780Z,240
2017-07-17T12:19:18.240Z,240
2017-07-17T12:19:31.685Z,240
2017-07-17T12:19:44.664Z,240
2017-07-17T12:19:57.071Z,240
2017-07-17T12:20:10.555Z,240
2017-07-17T12:20:24.063Z,240
2017-07-17T12:20:36.939Z,240
2017-07-17T12:20:49.318Z,240
2017-07-17T12:21:02.244Z,240
2017-07-17T12:21:15.185Z,240
2017-07-17T12:21:27.536Z,240
2017-07-17T12:21:41.026Z,240
2017-07-17T12:21:53.913Z,240
2017-07-17T12:22:06.348Z,240
2017-07-17T12:22:19.805Z,240
2017-07-17T12:22:32.161Z,240
2017-07-17T12:22:44.553Z,240
2017-07-17T12:22:58.059Z,240
2017-07-17T12:23:11.459Z,240
2017-07-17T12:23:24.863Z,240
2017-07-17T12:23:37.762Z,240
2017-07-17T12:23:51.156Z,240
2017-07-17T12:24:03.543Z,240
2017-07-17T12:24:16.975Z,240
2017-07-17T12:24:29.323Z,240
2017-07-17T12:24:42.839Z,240
2017-07-17T12:24:56.422Z,240
2017-07-17T12:25:09.308Z,245
2017-07-17T12:25:21.672Z,240
2017-07-17T12:25:35.084Z,245
2017-07-17T12:25:47.490Z,245
2017-07-17T12:26:01.013Z,240
2017-07-17T12:26:13.360Z,240
2017-07-17T12:26:26.811Z,240
2017-07-17T12:26:39.667Z,240
2017-07-17T12:26:52.556Z,245
2017-07-17T12:27:05.534Z,245
2017-07-17T12:27:18.938Z,245
2017-07-17T12:27:32.403Z,245
2017-07-17T12:27:45.263Z,240
2017-07-17T12:27:58.207Z,245
2017-07-17T12:28:11.704Z,245
2017-07-17T12:28:24.637Z,245
2017-07-17T12:28:38.058Z,245
2017-07-17T12:28:51.524Z,245
2017-07-17T12:29:05.008Z,245
2017-07-17T12:29:17.896Z,245
2017-07-17T12:29:30.825Z,245
2017-07-17T12:29:43.742Z,245
2017-07-17T12:29:57.170Z,245
2017-07-17T12:30:09.576Z,245
2017-07-17T12:30:23.030Z,245
2017-07-17T12:30:35.997Z,245
2017-07-17T12:30:49.512Z,245
2017-07-17T12:31:02.919Z,245
2017-07-17T12:31:15.849Z,245
2017-07-17T12:31:28.696Z,245
2017-07-17T12:31:41.619Z,245
2017-07-17T12:31:55.051Z,240
2017-07-17T12:32:07.944Z,245
2017-07-17T12:32:21.379Z,240
2017-07-17T12:32:34.297Z,245
2017-07-17T12:32:47.168Z,240
2017-07-17T12:33:00.521Z,245
2017-07-17T12:33:13.467Z,240
2017-07-17T12:33:26.429Z,245
2017-07-17T12:33:39.359Z,245
2017-07-17T12:33:52.264Z,245
2017-07-17T12:34:05.727Z,245
2017-07-17T12:34:18.676Z,245
2017-07-17T12:34:32.137Z,240
2017-07-17T12:34:45.033Z,245
2017-07-17T12:34:58.453Z,240
2017-07-17T12:35:12.387Z,245
2017-07-17T12:35:26.017Z,245
2017-07-17T12:35:38.411Z,240
2017-07-17T12:35:51.315Z,245
2017-07-17T12:36:04.223Z,240
2017-07-17T12:36:16.644Z,245
2017-07-17T12:36:30.133Z,245
2017-07-17T12:36:43.002Z,245
2017-07-17T12:36:56.385Z,245
2017-07-17T12:37:08.823Z,245
2017-07-17T12:37:22.220Z,245
2017-07-17T12:37:35.723Z,245
2017-07-17T12:37:49.185Z,250
2017-07-17T12:38:01.595Z,245
2017-07-17T12:38:14.549Z,240
2017-07-17T12:38:26.876Z,245
2017-07-17T12:38:40.343Z,245
2017-07-17T12:38:53.774Z,245
2017-07-17T12:39:07.259Z,245
2017-07-17T12:39:19.598Z,250
2017-07-17T12:39:33.120Z,250
2017-07-17T12:39:46.555Z,245
2017-07-17T12:39:59.912Z,245
2017-07-17T12:40:12.874Z,250
2017-07-17T12:40:25.803Z,245
2017-07-17T12:40:39.220Z,245
2017-07-17T12:40:52.142Z,245
2017-07-17T12:41:05.535Z,245
2017-07-17T12:41:18.994Z,250
2017-07-17T12:41:32.444Z,245
2017-07-17T12:41:45.869Z,245
2017-07-17T12:41:58.817Z,245
2017-07-17T12:42:11.761Z,245
2017-07-17T12:42:25.240Z,245
2017-07-17T12:42:38.177Z,245
2017-07-17T12:42:51.144Z,245
2017-07-17T12:43:04.053Z,245
2017-07-17T12:43:17.529Z,245
2017-07-17T12:43:30.443Z,250
2017-07-17T12:43:43.322Z,245
2017-07-17T12:43:56.750Z,245
2017-07-17T12:44:10.118Z,250
2017-07-17T12:44:23.037Z,245
2017-07-17T12:44:36.498Z,245
2017-07-17T12:44:49.470Z,245
2017-07-17T12:45:02.426Z,245
2017-07-17T12:45:15.351Z,245
2017-07-17T12:45:28.228Z,245
2017-07-17T12:45:41.690Z,245
2017-07-17T12:45:54.628Z,245
2017-07-17T12:46:07.552Z,245
2017-07-17T12:46:21.033Z,245
2017-07-17T12:46:34.513Z,250
2017-07-17T12:46:47.997Z,245
2017-07-17T12:47:01.453Z,245
2017-07-17T12:47:13.816Z,245
2017-07-17T12:47:26.212Z,245
2017-07-17T12:47:39.625Z,245
2017-07-17T12:47:53.018Z,245
2017-07-17T12:48:06.453Z,245
2017-07-17T12:48:19.345Z,245
2017-07-17T12:48:32.813Z,245
2017-07-17T12:48:46.697Z,245
2017-07-17T12:48:59.115Z,245
2017-07-17T12:49:12.060Z,245
2017-07-17T12:49:25.554Z,245
2017-07-17T12:49:38.512Z,250
2017-07-17T12:49:51.421Z,250
2017-07-17T12:50:04.900Z,250
2017-07-17T12:50:18.308Z,250
2017-07-17T12:50:31.281Z,245
2017-07-17T12:50:44.671Z,250
2017-07-17T12:50:58.069Z,250
2017-07-17T12:51:11.568Z,250
2017-07-17T12:51:23.928Z,250
2017-07-17T12:51:36.842Z,250
2017-07-17T12:51:49.749Z,250
2017-07-17T12:52:03.206Z,250
2017-07-17T12:52:16.658Z,250
2017-07-17T12:52:30.140Z,250
2017-07-17T12:52:41.995Z,250
2017-07-17T12:52:54.369Z,250
2017-07-17T12:53:07.239Z,250
2017-07-17T12:53:20.740Z,250
2017-07-17T12:53:33.625Z,250
2017-07-17T12:53:46.577Z,250
2017-07-17T12:54:00.062Z,250
2017-07-17T12:54:13.022Z,250
2017-07-17T12:54:26.442Z,250
2017-07-17T12:54:39.341Z,250
2017-07-17T12:54:52.230Z,250
2017-07-17T12:55:04.052Z,250
2017-07-17T12:55:16.404Z,250
2017-07-17T12:55:29.888Z,250
2017-07-17T12:55:43.276Z,250
2017-07-17T12:55:56.733Z,250
2017-07-17T12:56:09.661Z,250
2017-07-17T12:56:22.612Z,250
2017-07-17T12:56:35.561Z,250
2017-07-17T12:56:48.990Z,250
2017-07-17T12:57:02.416Z,250
2017-07-17T12:57:15.292Z,250
2017-07-17T12:57:28.750Z,245
2017-07-17T12:57:41.627Z,250
2017-07-17T12:57:55.057Z,250
2017-07-17T12:58:07.882Z,250
2017-07-17T12:58:21.387Z,250
2017-07-17T12:58:34.846Z,250
2017-07-17T12:58:47.884Z,250
2017-07-17T12:59:00.829Z,250
2017-07-17T12:59:13.200Z,250
2017-07-17T12:59:26.687Z,250
2017-07-17T12:59:40.178Z,250
2017-07-17T12:59:53.660Z,250
2017-07-17T13:00:07.119Z,250
2017-07-17T13:00:20.047Z,250
2017-07-17T13:00:33.505Z,250
2017-07-17T13:00:46.940Z,250
2017-07-17T13:00:59.846Z,250
2017-07-17T13:01:12.709Z,250
2017-07-17T13:01:25.587Z,250
2017-07-17T13:01:38.995Z,250
2017-07-17T13:01:51.887Z,250
2017-07-17T13:02:04.829Z,250
2017-07-17T13:02:17.667Z,250
2017-07-17T13:02:30.006Z,250
2017-07-17T13:02:42.875Z,250
2017-07-17T13:02:56.343Z,250
2017-07-17T13:03:08.779Z,250
2017-07-17T13:03:22.266Z,250
2017-07-17T13:03:35.107Z,250
2017-07-17T13:03:47.020Z,250
2017-07-17T13:03:58.853Z,250
2017-07-17T13:04:12.291Z,255
2017-07-17T13:04:25.671Z,250
2017-07-17T13:04:38.584Z,250
2017-07-17T13:04:52.045Z,250
2017-07-17T13:05:05.520Z,250
2017-07-17T13:05:17.911Z,250
2017-07-17T13:05:31.385Z,250
2017-07-17T13:05:44.298Z,250
2017-07-17T13:05:57.781Z,250
2017-07-17T13:06:11.319Z,250
2017-07-17T13:06:24.829Z,250
2017-07-17T13:06:38.245Z,250
2017-07-17T13:06:51.141Z,250
2017-07-17T13:07:04.553Z,250
2017-07-17T13:07:18.031Z,250
2017-07-17T13:07:31.008Z,250
2017-07-17T13:07:44.489Z,250
2017-07-17T13:07:57.936Z,250
2017-07-17T13:08:10.908Z,250
2017-07-17T13:08:23.801Z,250
2017-07-17T13:08:36.644Z,250
2017-07-17T13:08:50.066Z,250
2017-07-17T13:09:03.534Z,250
2017-07-17T13:09:16.453Z,255
2017-07-17T13:09:29.857Z,255
2017-07-17T13:09:41.737Z,255
2017-07-17T13:09:55.220Z,255
2017-07-17T13:10:08.194Z,250
2017-07-17T13:10:21.149Z,250
2017-07-17T13:10:34.075Z,250
2017-07-17T13:10:47.542Z,250
2017-07-17T13:11:00.473Z,255
2017-07-17T13:11:13.396Z,255
2017-07-17T13:11:27.096Z,250
2017-07-17T13:11:40.545Z,250
2017-07-17T13:11:53.487Z,260
2017-07-17T13:12:06.949Z,250
2017-07-17T13:12:20.413Z,255
2017-07-17T13:12:33.320Z,250
2017-07-17T13:12:46.755Z,255
2017-07-17T13:13:00.252Z,250
2017-07-17T13:13:12.607Z,250
2017-07-17T13:13:26.099Z,255
2017-07-17T13:13:39.599Z,255
2017-07-17T13:13:52.526Z,255
2017-07-17T13:14:05.994Z,250
2017-07-17T13:14:19.467Z,255
2017-07-17T13:14:32.315Z,250
2017-07-17T13:14:45.783Z,250
2017-07-17T13:14:59.197Z,250
2017-07-17T13:15:12.707Z,250
2017-07-17T13:15:25.660Z,250
2017-07-17T13:15:39.102Z,255
2017-07-17T13:15:52.036Z,255
2017-07-17T13:16:04.418Z,255
2017-07-17T13:16:16.830Z,255
2017-07-17T13:16:30.278Z,255
2017-07-17T13:16:43.802Z,260
2017-07-17T13:16:56.129Z,260
2017-07-17T13:17:09.892Z,255
2017-07-17T13:17:24.722Z,255
2017-07-17T13:17:38.199Z,255
2017-07-17T13:17:51.052Z,260
2017-07-17T13:18:04.446Z,255
2017-07-17T13:18:17.948Z,250
2017-07-17T13:18:31.394Z,260
2017-07-17T13:18:44.853Z,255
2017-07-17T13:18:58.689Z,255
2017-07-17T13:19:11.054Z,260
2017-07-17T13:19:24.455Z,255
2017-07-17T13:19:37.944Z,255
2017-07-17T13:19:50.868Z,255
2017-07-17T13:20:04.327Z,255
2017-07-17T13:20:17.344Z,255
2017-07-17T13:20:30.778Z,255
2017-07-17T13:20:44.244Z,255
2017-07-17T13:20:56.162Z,255
2017-07-17T13:21:09.646Z,255
2017-07-17T13:21:22.559Z,255
2017-07-17T13:21:35.486Z,255
2017-07-17T13:21:49.160Z,255
2017-07-17T13:22:02.680Z,255
2017-07-17T13:22:15.638Z,255
2017-07-17T13:22:28.529Z,255
2017-07-17T13:22:41.959Z,255
2017-07-17T13:22:55.442Z,255
2017-07-17T13:23:08.888Z,255
2017-07-17T13:23:21.909Z,255
2017-07-17T13:23:35.377Z,260
2017-07-17T13:23:48.303Z,255
2017-07-17T13:24:01.733Z,255
2017-07-17T13:24:14.661Z,255
2017-07-17T13:24:27.074Z,255
2017-07-17T13:24:39.457Z,255
2017-07-17T13:24:51.848Z,255
2017-07-17T13:25:05.296Z,250
2017-07-17T13:25:17.651Z,260
2017-07-17T13:25:31.039Z,255
2017-07-17T13:25:43.397Z,255
2017-07-17T13:25:56.840Z,255
2017-07-17T13:26:10.315Z,255
2017-07-17T13:26:23.235Z,255
2017-07-17T13:26:36.660Z,255
2017-07-17T13:26:50.137Z,255
2017-07-17T13:27:03.655Z,255
2017-07-17T13:27:16.596Z,255
2017-07-17T13:27:30.073Z,255
2017-07-17T13:27:42.981Z,255
2017-07-17T13:27:55.962Z,255
2017-07-17T13:28:09.368Z,255
2017-07-17T13:28:21.782Z,255
2017-07-17T13:28:35.219Z,255
2017-07-17T13:28:48.121Z,255
2017-07-17T13:29:00.577Z,255
2017-07-17T13:29:14.000Z,255
2017-07-17T13:29:26.922Z,255
2017-07-17T13:29:40.377Z,255
2017-07-17T13:29:53.289Z,255
2017-07-17T13:30:06.204Z,255
2017-07-17T13:30:19.659Z,255
2017-07-17T13:30:33.134Z,255
2017-07-17T13:30:46.091Z,255
2017-07-17T13:30:59.002Z,255
2017-07-17T13:31:11.318Z,255
2017-07-17T13:31:24.232Z,255
2017-07-17T13:31:37.167Z,255
2017-07-17T13:31:50.089Z,255
2017-07-17T13:32:03.006Z,255
2017-07-17T13:32:15.952Z,255
2017-07-17T13:32:28.871Z,255
2017-07-17T13:32:41.723Z,255
2017-07-17T13:32:55.156Z,255
2017-07-17T13:33:08.091Z,255
2017-07-17T13:33:21.009Z,255
2017-07-17T13:33:34.405Z,255
2017-07-17T13:33:47.374Z,255
2017-07-17T13:34:01.172Z,255
2017-07-17T13:34:14.698Z,255
2017-07-17T13:34:28.130Z,255
2017-07-17T13:34:41.090Z,255
2017-07-17T13:34:54.252Z,255
2017-07-17T13:35:08.226Z,255
2017-07-17T13:35:20.751Z,255
2017-07-17T13:35:34.231Z,255
2017-07-17T13:35:47.727Z,255
2017-07-17T13:36:01.152Z,255
2017-07-17T13:36:14.092Z,255
2017-07-17T13:36:27.006Z,255
2017-07-17T13:36:40.495Z,255
2017-07-17T13:36:53.899Z,255
2017-07-17T13:37:06.828Z,255
2017-07-17T13:37:20.265Z,255
2017-07-17T13:37:33.714Z,255
2017-07-17T13:37:47.122Z,255
2017-07-17T13:37:59.493Z,255
2017-07-17T13:38:11.852Z,255
2017-07-17T13:38:24.780Z,255
2017-07-17T13:38:38.239Z,255
2017-07-17T13:38:51.142Z,255
2017-07-17T13:39:04.307Z,255
2017-07-17T13:39:17.772Z,255
2017-07-17T13:39:31.231Z,255
2017-07-17T13:39:44.086Z,255
2017-07-17T13:39:57.552Z,255
2017-07-17T13:40:10.554Z,255
2017-07-17T13:40:24.060Z,255
2017-07-17T13:40:36.985Z,255
2017-07-17T13:40:50.380Z,255
2017-07-17T13:41:02.791Z,255
2017-07-17T13:41:15.758Z,255
2017-07-17T13:41:28.689Z,255
2017-07-17T13:41:41.553Z,255
2017-07-17T13:41:54.959Z,255
2017-07-17T13:42:08.360Z,255
2017-07-17T13:42:21.310Z,255
2017-07-17T13:42:34.224Z,255
2017-07-17T13:42:47.695Z,255
2017-07-17T13:43:01.155Z,255
2017-07-17T13:43:14.012Z,255
2017-07-17T13:43:26.880Z,255
2017-07-17T13:43:39.807Z,255
2017-07-17T13:43:53.255Z,255
2017-07-17T13:44:06.130Z,255
2017-07-17T13:44:19.606Z,255
2017-07-17T13:44:33.061Z,255
2017-07-17T13:44:45.997Z,255
2017-07-17T13:44:57.841Z,255
2017-07-17T13:45:10.760Z,255
2017-07-17T13:45:24.211Z,255
2017-07-17T13:45:36.059Z,255
2017-07-17T13:45:49.476Z,255
2017-07-17T13:46:02.890Z,255
2017-07-17T13:46:15.799Z,255
2017-07-17T13:46:28.696Z,255
2017-07-17T13:46:41.676Z,255
2017-07-17T13:46:54.568Z,255
2017-07-17T13:47:07.421Z,255
2017-07-17T13:47:20.856Z,255
2017-07-17T13:47:33.748Z,255
2017-07-17T13:47:47.263Z,255
2017-07-17T13:48:00.181Z,255
2017-07-17T13:48:13.104Z,255
2017-07-17T13:48:26.579Z,255
2017-07-17T13:48:38.412Z,255
2017-07-17T13:48:50.765Z,250
2017-07-17T13:49:04.698Z,255
2017-07-17T13:49:17.604Z,255
2017-07-17T13:49:31.057Z,255
2017-07-17T13:49:44.512Z,260
2017-07-17T13:49:57.465Z,255
2017-07-17T13:50:09.864Z,255
2017-07-17T13:50:22.772Z,255
2017-07-17T13:50:36.198Z,255
2017-07-17T13:50:48.041Z,255
2017-07-17T13:51:01.539Z,255
2017-07-17T13:51:13.918Z,255
2017-07-17T13:51:26.859Z,255
2017-07-17T13:51:39.771Z,255
2017-07-17T13:51:53.248Z,255
2017-07-17T13:52:05.689Z,255
2017-07-17T13:52:18.086Z,255
2017-07-17T13:52:31.021Z,255
2017-07-17T13:52:43.936Z,255
2017-07-17T13:52:56.328Z,255
2017-07-17T13:53:08.439Z,255
2017-07-17T13:53:21.404Z,255
2017-07-17T13:53:34.838Z,255
2017-07-17T13:53:48.323Z,255
2017-07-17T13:54:01.712Z,255
2017-07-17T13:54:14.317Z,255
2017-07-17T13:54:27.832Z,255
2017-07-17T13:54:41.271Z,255
2017-07-17T13:54:54.200Z,255
2017-07-17T13:55:07.688Z,255
2017-07-17T13:55:21.103Z,255
2017-07-17T13:55:34.579Z,255
2017-07-17T13:55:47.996Z,255
2017-07-17T13:56:00.910Z,255
2017-07-17T13:56:14.352Z,255
2017-07-17T13:56:27.816Z,255
2017-07-17T13:56:41.304Z,255
2017-07-17T13:56:54.732Z,255
2017-07-17T13:57:08.258Z,255
2017-07-17T13:57:21.173Z,255
2017-07-17T13:57:34.610Z,255
2017-07-17T13:57:48.127Z,255
2017-07-17T13:58:01.588Z,255
2017-07-17T13:58:14.501Z,255
2017-07-17T13:58:27.929Z,255
2017-07-17T13:58:41.377Z,255
2017-07-17T13:58:54.835Z,255
2017-07-17T13:59:07.759Z,255
2017-07-17T13:59:20.824Z,255
2017-07-17T13:59:34.291Z,255
2017-07-17T13:59:47.731Z,255
2017-07-17T14:00:01.196Z,260
2017-07-17T14:00:14.141Z,255
2017-07-17T14:00:26.589Z,255
2017-07-17T14:00:40.018Z,255
2017-07-17T14:00:53.531Z,260
2017-07-17T14:01:06.502Z,255
2017-07-17T14:01:19.982Z,255
2017-07-17T14:01:32.867Z,255
2017-07-17T14:01:46.313Z,255
2017-07-17T14:01:59.237Z,255
2017-07-17T14:02:12.179Z,255
2017-07-17T14:02:25.103Z,255
2017-07-17T14:02:38.541Z,255
2017-07-17T14:02:51.488Z,255
2017-07-17T14:03:04.440Z,255
2017-07-17T14:03:17.881Z,255
2017-07-17T14:03:31.429Z,255
2017-07-17T14:03:44.861Z,255
2017-07-17T14:03:58.229Z,255
2017-07-17T14:04:11.621Z,255
2017-07-17T14:04:25.210Z,255
2017-07-17T14:04:37.570Z,255
2017-07-17T14:04:50.496Z,255
2017-07-17T14:05:03.474Z,255
2017-07-17T14:05:16.973Z,255
2017-07-17T14:05:30.453Z,255
2017-07-17T14:05:43.923Z,255
2017-07-17T14:05:57.356Z,255
2017-07-17T14:06:10.286Z,255
2017-07-17T14:06:23.221Z,255
2017-07-17T14:06:36.688Z,255
2017-07-17T14:06:50.112Z,255
2017-07-17T14:07:03.527Z,255
2017-07-17T14:07:17.014Z,255
2017-07-17T14:07:30.492Z,255
2017-07-17T14:07:43.953Z,255
2017-07-17T14:07:56.868Z,255
2017-07-17T14:08:09.819Z,255
2017-07-17T14:08:22.717Z,255
2017-07-17T14:08:36.151Z,255
2017-07-17T14:08:49.099Z,260
2017-07-17T14:09:02.530Z,255
2017-07-17T14:09:16.020Z,255
2017-07-17T14:09:28.912Z,255
2017-07-17T14:09:42.485Z,255
2017-07-17T14:09:55.436Z,255
2017-07-17T14:10:08.884Z,255
2017-07-17T14:10:21.743Z,255
2017-07-17T14:10:35.218Z,255
2017-07-17T14:10:48.160Z,255
2017-07-17T14:11:01.108Z,255
2017-07-17T14:11:13.994Z,255
2017-07-17T14:11:27.522Z,255
2017-07-17T14:11:39.912Z,255
2017-07-17T14:11:52.343Z,260
2017-07-17T14:12:05.309Z,255
2017-07-17T14:12:17.726Z,255
2017-07-17T14:12:31.153Z,255
2017-07-17T14:12:44.008Z,255
2017-07-17T14:12:57.491Z,255
2017-07-17T14:13:10.402Z,255
2017-07-17T14:13:23.822Z,255
2017-07-17T14:13:36.714Z,255
2017-07-17T14:13:49.689Z,255
2017-07-17T14:14:03.153Z,255
2017-07-17T14:14:16.691Z,255
2017-07-17T14:14:29.623Z,255
2017-07-17T14:14:42.572Z,255
2017-07-17T14:14:55.978Z,255
2017-07-17T14:15:08.905Z,255
2017-07-17T14:15:22.320Z,255
2017-07-17T14:15:35.723Z,255
2017-07-17T14:15:48.631Z,255
2017-07-17T14:16:02.087Z,255
2017-07-17T14:16:15.049Z,255
2017-07-17T14:16:28.452Z,255
2017-07-17T14:16:41.967Z,255
2017-07-17T14:16:54.891Z,255
2017-07-17T14:17:07.834Z,255
2017-07-17T14:17:19.722Z,255
2017-07-17T14:17:32.604Z,255
2017-07-17T14:17:45.507Z,255
2017-07-17T14:17:58.447Z,255
2017-07-17T14:18:10.859Z,255
2017-07-17T14:18:24.383Z,255
2017-07-17T14:18:37.852Z,255
2017-07-17T14:18:51.366Z,255
2017-07-17T14:19:04.826Z,255
2017-07-17T14:19:18.901Z,255
2017-07-17T14:19:32.316Z,255
2017-07-17T14:19:45.732Z,255
2017-07-17T14:19:58.152Z,255
2017-07-17T14:20:11.623Z,255
2017-07-17T14:20:25.079Z,255
2017-07-17T14:20:37.433Z,255
2017-07-17T14:20:50.894Z,255
2017-07-17T14:21:04.329Z,255
2017-07-17T14:21:17.231Z,255
2017-07-17T14:21:30.692Z,255
2017-07-17T14:21:42.546Z,255
2017-07-17T14:21:56.007Z,255
2017-07-17T14:22:09.491Z,255
2017-07-17T14:22:22.944Z,255
2017-07-17T14:22:36.418Z,255
2017-07-17T14:22:49.411Z,255
2017-07-17T14:23:02.302Z,255
2017-07-17T14:23:15.760Z,255
2017-07-17T14:23:29.256Z,255
2017-07-17T14:23:41.669Z,255
2017-07-17T14:23:55.150Z,255
2017-07-17T14:24:08.596Z,255
2017-07-17T14:24:21.525Z,255
2017-07-17T14:24:34.418Z,255
2017-07-17T14:24:46.839Z,255
2017-07-17T14:24:59.214Z,255
2017-07-17T14:25:12.175Z,255
2017-07-17T14:25:25.042Z,260
2017-07-17T14:25:38.456Z,255
2017-07-17T14:25:50.864Z,255
2017-07-17T14:26:04.315Z,255
2017-07-17T14:26:16.744Z,255
2017-07-17T14:26:29.702Z,260
2017-07-17T14:26:43.142Z,255
2017-07-17T14:26:55.523Z,255
2017-07-17T14:27:07.895Z,255
2017-07-17T14:27:21.348Z,255
2017-07-17T14:27:34.283Z,255
2017-07-17T14:27:47.717Z,255
2017-07-17T14:28:00.592Z,255
2017-07-17T14:28:13.037Z,255
2017-07-17T14:28:26.463Z,255
2017-07-17T14:28:39.913Z,255
2017-07-17T14:28:52.821Z,260
2017-07-17T14:29:05.156Z,255
2017-07-17T14:29:18.558Z,255
2017-07-17T14:29:32.070Z,255
2017-07-17T14:29:45.563Z,255
2017-07-17T14:29:57.997Z,255
2017-07-17T14:30:10.944Z,255
2017-07-17T14:30:24.371Z,255
2017-07-17T14:30:37.837Z,255
2017-07-17T14:30:51.289Z,255
2017-07-17T14:31:04.267Z,260
2017-07-17T14:31:17.718Z,255
2017-07-17T14:31:31.168Z,255
2017-07-17T14:31:44.563Z,260
2017-07-17T14:31:56.950Z,255
2017-07-17T14:32:10.481Z,255
2017-07-17T14:32:24.032Z,255
2017-07-17T14:32:37.485Z,255
2017-07-17T14:32:50.922Z,255
2017-07-17T14:33:04.316Z,260
2017-07-17T14:33:17.244Z,255
2017-07-17T14:33:30.692Z,260
2017-07-17T14:33:44.085Z,260
2017-07-17T14:33:57.540Z,260
2017-07-17T14:34:11.008Z,255
2017-07-17T14:34:24.065Z,255
2017-07-17T14:34:37.491Z,260
2017-07-17T14:34:49.850Z,255
2017-07-17T14:35:02.758Z,260
2017-07-17T14:35:16.204Z,260
2017-07-17T14:35:29.653Z,255
2017-07-17T14:35:43.048Z,260
2017-07-17T14:35:56.535Z,260
2017-07-17T14:36:10.036Z,260
2017-07-17T14:36:22.991Z,260
2017-07-17T14:36:36.404Z,260
2017-07-17T14:36:48.292Z,260
2017-07-17T14:37:01.201Z,260
2017-07-17T14:37:13.579Z,260
2017-07-17T14:37:27.057Z,260
2017-07-17T14:37:39.996Z,260
2017-07-17T14:37:53.469Z,260
2017-07-17T14:38:06.986Z,260
2017-07-17T14:38:20.486Z,260
2017-07-17T14:38:33.895Z,260
2017-07-17T14:38:47.398Z,260
2017-07-17T14:39:00.849Z,260
2017-07-17T14:39:14.321Z,260
2017-07-17T14:39:27.809Z,260
2017-07-17T14:39:40.739Z,260
2017-07-17T14:39:54.191Z,260
2017-07-17T14:40:07.162Z,260
2017-07-17T14:40:20.612Z,260
2017-07-17T14:40:34.022Z,260
2017-07-17T14:40:46.977Z,260
2017-07-17T14:40:59.319Z,260
2017-07-17T14:41:12.822Z,260
2017-07-17T14:41:25.811Z,260
2017-07-17T14:41:38.773Z,260
2017-07-17T14:41:52.182Z,260
2017-07-17T14:42:05.671Z,260
2017-07-17T14:42:18.046Z,260
2017-07-17T14:42:31.488Z,260
2017-07-17T14:42:44.946Z,260
2017-07-17T14:42:58.461Z,260
2017-07-17T14:43:11.364Z,260
2017-07-17T14:43:23.760Z,260
2017-07-17T14:43:37.191Z,260
2017-07-17T14:43:50.666Z,260
2017-07-17T14:44:04.178Z,260
2017-07-17T14:44:17.640Z,260
2017-07-17T14:44:31.184Z,260
2017-07-17T14:44:44.050Z,260
2017-07-17T14:44:57.511Z,260
2017-07-17T14:45:10.434Z,260